PWSweather.com
Personal Weather Stations
Station Observations
JOE4SPEED
Jupiter, Fl, Jupiter, FL 33458

Jupiter, FlJupiter, FL 33458

Lat: 26.9373, Lon: -80.1101

Elevation: 12

Station Type: Davis VP 2

http://www.joe4speed.com/wxindex.php

High Low Average
Temperature 88.7°F31.5°F 73.7°F23.2°F 76.9°F24.9°F
Dew Point 80.1°F26.7°F 70.2°F21.2°F 73.3°F22.9°F
Winds 4.9 mph SE7.9 mph SE Calm Calm 1.1 mph 1.8 mph
Wind Gusts 10.0 mph16.1 mph -- 2.1 mph3.4 mph
Humidity 92% 74% 89%
Pressure 29.96 in1014.60 in 29.88 in1011.90 in -
Precipitation 0.59 in15.00 in - -
Hour Temp Dew Point Humidity Winds Wind Gusts Pressure Precip Precip Rate Daily Precip Total
12:00 AM 76.5°F24.7°C 72.3°F22.4°C 87% Calm Calm -- 29.93 in1013.5 mb 0.00 in0.0 mm 0.00 in/hr0.0 mm/hr 0.00 in0.0 mm
12:10 AM 76.5°F24.7°C 72.4°F22.4°C 87% Calm Calm -- 29.93 in1013.5 mb 0.00 in0.0 mm 0.00 in/hr0.0 mm/hr 0.00 in0.0 mm
12:20 AM 76.6°F24.8°C 72.8°F22.7°C 88% Calm Calm -- 29.92 in1013.2 mb 0.00 in0.0 mm 0.00 in/hr0.0 mm/hr 0.00 in0.0 mm
12:30 AM 76.5°F24.7°C 72.7°F22.6°C 88% Calm Calm -- 29.92 in1013.2 mb 0.00 in0.0 mm 0.00 in/hr0.0 mm/hr 0.00 in0.0 mm
12:40 AM 76.3°F24.6°C 72.5°F22.5°C 88% Calm Calm -- 29.92 in1013.2 mb 0.00 in0.0 mm 0.00 in/hr0.0 mm/hr 0.00 in0.0 mm
12:50 AM 76.1°F24.5°C 72.3°F22.4°C 88% Calm Calm -- 29.92 in1013.2 mb 0.00 in0.0 mm 0.00 in/hr0.0 mm/hr 0.00 in0.0 mm
01:00 AM 75.9°F24.4°C 72.1°F22.3°C 88% Calm Calm -- 29.91 in1012.9 mb 0.00 in0.0 mm 0.00 in/hr0.0 mm/hr 0.00 in0.0 mm
01:10 AM 75.8°F24.3°C 72.0°F22.2°C 88% Calm Calm -- 29.91 in1012.9 mb 0.00 in0.0 mm 0.00 in/hr0.0 mm/hr 0.00 in0.0 mm
01:20 AM 75.7°F24.3°C 71.9°F22.2°C 88% Calm Calm -- 29.91 in1012.9 mb 0.00 in0.0 mm 0.00 in/hr0.0 mm/hr 0.00 in0.0 mm
01:30 AM 75.5°F24.2°C 71.7°F22.1°C 88% Calm Calm -- 29.91 in1012.9 mb 0.00 in0.0 mm 0.00 in/hr0.0 mm/hr 0.00 in0.0 mm
01:40 AM 75.5°F24.2°C 72.0°F22.2°C 89% Calm Calm -- 29.91 in1012.9 mb 0.00 in0.0 mm 0.00 in/hr0.0 mm/hr 0.00 in0.0 mm
01:50 AM 75.4°F24.1°C 71.9°F22.2°C 89% Calm Calm -- 29.91 in1012.9 mb 0.00 in0.0 mm 0.00 in/hr0.0 mm/hr 0.00 in0.0 mm
02:00 AM 75.4°F24.1°C 71.9°F22.2°C 89% Calm Calm -- 29.90 in1012.5 mb 0.00 in0.0 mm 0.00 in/hr0.0 mm/hr 0.00 in0.0 mm
02:10 AM 75.3°F24.1°C 71.8°F22.1°C 89% Calm Calm -- 29.90 in1012.5 mb 0.00 in0.0 mm 0.00 in/hr0.0 mm/hr 0.00 in0.0 mm
02:20 AM 75.2°F24.0°C 71.7°F22.1°C 89% Calm Calm -- 29.90 in1012.5 mb 0.00 in0.0 mm 0.00 in/hr0.0 mm/hr 0.00 in0.0 mm
02:30 AM 75.1°F23.9°C 71.6°F22.0°C 89% Calm Calm -- 29.90 in1012.5 mb 0.00 in0.0 mm 0.00 in/hr0.0 mm/hr 0.00 in0.0 mm
02:40 AM 75.1°F23.9°C 71.6°F22.0°C 89% Calm Calm -- 29.90 in1012.5 mb 0.00 in0.0 mm 0.00 in/hr0.0 mm/hr 0.00 in0.0 mm
02:50 AM 75.0°F23.9°C 71.9°F22.2°C 90% Calm Calm -- 29.90 in1012.5 mb 0.00 in0.0 mm 0.00 in/hr0.0 mm/hr 0.00 in0.0 mm
03:00 AM 75.0°F23.9°C 71.9°F22.2°C 90% Calm Calm -- 29.89 in1012.2 mb 0.00 in0.0 mm 0.00 in/hr0.0 mm/hr 0.00 in0.0 mm
03:10 AM 75.0°F23.9°C 71.9°F22.2°C 90% Calm Calm -- 29.89 in1012.2 mb 0.00 in0.0 mm 0.00 in/hr0.0 mm/hr 0.00 in0.0 mm
03:20 AM 75.0°F23.9°C 71.8°F22.1°C 90% Calm Calm -- 29.89 in1012.2 mb 0.00 in0.0 mm 0.00 in/hr0.0 mm/hr 0.00 in0.0 mm
03:30 AM 74.8°F23.8°C 71.7°F22.1°C 90% Calm Calm -- 29.88 in1011.9 mb 0.00 in0.0 mm 0.00 in/hr0.0 mm/hr 0.00 in0.0 mm
03:40 AM 74.8°F23.8°C 71.6°F22.0°C 90% Calm Calm -- 29.88 in1011.9 mb 0.00 in0.0 mm 0.00 in/hr0.0 mm/hr 0.00 in0.0 mm
03:50 AM 74.7°F23.7°C 71.6°F22.0°C 90% Calm Calm -- 29.88 in1011.9 mb 0.00 in0.0 mm 0.00 in/hr0.0 mm/hr 0.00 in0.0 mm
04:00 AM 74.7°F23.7°C 71.6°F22.0°C 90% Calm Calm -- 29.88 in1011.9 mb 0.00 in0.0 mm 0.00 in/hr0.0 mm/hr 0.00 in0.0 mm
04:10 AM 74.6°F23.7°C 71.5°F21.9°C 90% Calm Calm -- 29.89 in1012.2 mb 0.00 in0.0 mm 0.00 in/hr0.0 mm/hr 0.00 in0.0 mm
04:20 AM 74.5°F23.6°C 71.4°F21.9°C 90% Calm Calm -- 29.89 in1012.2 mb 0.00 in0.0 mm 0.00 in/hr0.0 mm/hr 0.00 in0.0 mm
04:30 AM 74.4°F23.6°C 71.6°F22.0°C 91% Calm Calm -- 29.89 in1012.2 mb 0.00 in0.0 mm 0.00 in/hr0.0 mm/hr 0.00 in0.0 mm
04:40 AM 74.4°F23.6°C 71.6°F22.0°C 91% Calm Calm -- 29.89 in1012.2 mb 0.00 in0.0 mm 0.00 in/hr0.0 mm/hr 0.00 in0.0 mm
04:50 AM 74.3°F23.5°C 71.5°F21.9°C 91% Calm Calm -- 29.88 in1011.9 mb 0.00 in0.0 mm 0.00 in/hr0.0 mm/hr 0.00 in0.0 mm
05:00 AM 74.2°F23.4°C 71.4°F21.9°C 91% Calm Calm -- 29.89 in1012.2 mb 0.00 in0.0 mm 0.00 in/hr0.0 mm/hr 0.00 in0.0 mm
05:10 AM 74.3°F23.5°C 71.5°F21.9°C 91% Calm Calm -- 29.89 in1012.2 mb 0.00 in0.0 mm 0.00 in/hr0.0 mm/hr 0.00 in0.0 mm
05:20 AM 74.3°F23.5°C 71.5°F21.9°C 91% Calm Calm -- 29.90 in1012.5 mb 0.00 in0.0 mm 0.00 in/hr0.0 mm/hr 0.00 in0.0 mm
05:30 AM 74.5°F23.6°C 71.7°F22.1°C 91% Calm Calm -- 29.90 in1012.5 mb 0.00 in0.0 mm 0.00 in/hr0.0 mm/hr 0.00 in0.0 mm
05:40 AM 74.6°F23.7°C 71.8°F22.1°C 91% Calm Calm -- 29.90 in1012.5 mb 0.00 in0.0 mm 0.00 in/hr0.0 mm/hr 0.00 in0.0 mm
05:50 AM 74.7°F23.7°C 71.9°F22.2°C 91% Calm Calm -- 29.91 in1012.9 mb 0.00 in0.0 mm 0.00 in/hr0.0 mm/hr 0.00 in0.0 mm
06:00 AM 74.7°F23.7°C 71.9°F22.2°C 91% Calm Calm -- 29.91 in1012.9 mb 0.00 in0.0 mm 0.00 in/hr0.0 mm/hr 0.00 in0.0 mm
06:10 AM 74.7°F23.7°C 71.9°F22.2°C 91% Calm Calm -- 29.91 in1012.9 mb 0.00 in0.0 mm 0.00 in/hr0.0 mm/hr 0.00 in0.0 mm
06:20 AM 74.6°F23.7°C 71.8°F22.1°C 91% Calm Calm -- 29.90 in1012.5 mb 0.00 in0.0 mm 0.00 in/hr0.0 mm/hr 0.00 in0.0 mm
06:30 AM 74.6°F23.7°C 71.8°F22.1°C 91% Calm Calm -- 29.91 in1012.9 mb 0.00 in0.0 mm 0.00 in/hr0.0 mm/hr 0.00 in0.0 mm
06:40 AM 74.5°F23.6°C 71.7°F22.1°C 91% Calm Calm -- 29.91 in1012.9 mb 0.00 in0.0 mm 0.00 in/hr0.0 mm/hr 0.00 in0.0 mm
06:50 AM 74.4°F23.6°C 71.6°F22.0°C 91% Calm Calm -- 29.91 in1012.9 mb 0.00 in0.0 mm 0.00 in/hr0.0 mm/hr 0.00 in0.0 mm
07:00 AM 74.3°F23.5°C 71.5°F21.9°C 91% Calm Calm -- 29.92 in1013.2 mb 0.00 in0.0 mm 0.00 in/hr0.0 mm/hr 0.00 in0.0 mm
07:10 AM 74.2°F23.4°C 71.4°F21.9°C 91% Calm Calm -- 29.92 in1013.2 mb 0.00 in0.0 mm 0.00 in/hr0.0 mm/hr 0.00 in0.0 mm
07:20 AM 74.2°F23.4°C 71.7°F22.1°C 92% Calm Calm -- 29.92 in1013.2 mb 0.00 in0.0 mm 0.00 in/hr0.0 mm/hr 0.00 in0.0 mm
07:30 AM 74.4°F23.6°C 71.9°F22.2°C 92% Calm Calm -- 29.92 in1013.2 mb 0.00 in0.0 mm 0.00 in/hr0.0 mm/hr 0.00 in0.0 mm
07:40 AM 74.6°F23.7°C 72.1°F22.3°C 92% Calm Calm -- 29.93 in1013.5 mb 0.00 in0.0 mm 0.00 in/hr0.0 mm/hr 0.00 in0.0 mm
07:50 AM 75.0°F23.9°C 72.5°F22.5°C 92% Calm Calm -- 29.93 in1013.5 mb 0.00 in0.0 mm 0.00 in/hr0.0 mm/hr 0.00 in0.0 mm
08:00 AM 75.5°F24.2°C 73.0°F22.8°C 92% Calm Calm -- 29.94 in1013.9 mb 0.00 in0.0 mm 0.00 in/hr0.0 mm/hr 0.00 in0.0 mm
08:10 AM 75.9°F24.4°C 73.4°F23.0°C 92% Calm Calm -- 29.94 in1013.9 mb 0.00 in0.0 mm 0.00 in/hr0.0 mm/hr 0.00 in0.0 mm
08:20 AM 76.2°F24.6°C 73.7°F23.2°C 92% Calm Calm -- 29.94 in1013.9 mb 0.00 in0.0 mm 0.00 in/hr0.0 mm/hr 0.00 in0.0 mm
08:30 AM 76.7°F24.8°C 74.2°F23.4°C 92% Calm Calm -- 29.94 in1013.9 mb 0.00 in0.0 mm 0.00 in/hr0.0 mm/hr 0.00 in0.0 mm
08:40 AM 77.3°F25.2°C 74.8°F23.8°C 92% Calm Calm -- 29.94 in1013.9 mb 0.00 in0.0 mm 0.00 in/hr0.0 mm/hr 0.00 in0.0 mm
08:50 AM 78.0°F25.6°C 75.4°F24.1°C 92% Calm Calm -- 29.95 in1014.2 mb 0.00 in0.0 mm 0.00 in/hr0.0 mm/hr 0.00 in0.0 mm
09:00 AM 78.4°F25.8°C 75.9°F24.4°C 92% Calm Calm -- 29.95 in1014.2 mb 0.00 in0.0 mm 0.00 in/hr0.0 mm/hr 0.00 in0.0 mm
09:10 AM 79.1°F26.2°C 76.2°F24.6°C 91% Calm Calm -- 29.95 in1014.2 mb 0.00 in0.0 mm 0.00 in/hr0.0 mm/hr 0.00 in0.0 mm
09:20 AM 79.7°F26.5°C 76.2°F24.6°C 89% Calm Calm -- 29.95 in1014.2 mb 0.00 in0.0 mm 0.00 in/hr0.0 mm/hr 0.00 in0.0 mm
09:30 AM 80.1°F26.7°C 76.3°F24.6°C 88% Calm Calm -- 29.95 in1014.2 mb 0.00 in0.0 mm 0.00 in/hr0.0 mm/hr 0.00 in0.0 mm
09:40 AM 80.5°F26.9°C 76.3°F24.6°C 87% Calm Calm -- 29.95 in1014.2 mb 0.00 in0.0 mm 0.00 in/hr0.0 mm/hr 0.00 in0.0 mm
09:50 AM 80.9°F27.2°C 76.3°F24.6°C 86% 2.4 mph SSE3.9 kmh SSE 3.0 mph4.8 kmh 29.95 in1014.2 mb 0.00 in0.0 mm 0.00 in/hr0.0 mm/hr 0.00 in0.0 mm
10:00 AM 80.9°F27.2°C 75.6°F24.2°C 84% 2.9 mph E4.7 kmh E 7.0 mph11.3 kmh 29.96 in1014.6 mb 0.00 in0.0 mm 0.00 in/hr0.0 mm/hr 0.00 in0.0 mm
10:10 AM 81.3°F27.4°C 75.6°F24.2°C 83% 2.0 mph ESE3.2 kmh ESE 3.0 mph4.8 kmh 29.95 in1014.2 mb 0.00 in0.0 mm 0.00 in/hr0.0 mm/hr 0.00 in0.0 mm
10:20 AM 83.8°F28.8°C 77.3°F25.2°C 81% 3.9 mph ESE6.3 kmh ESE 6.0 mph9.7 kmh 29.95 in1014.2 mb 0.00 in0.0 mm 0.00 in/hr0.0 mm/hr 0.00 in0.0 mm
10:30 AM 85.0°F29.4°C 77.7°F25.4°C 79% 1.2 mph ESE1.9 kmh ESE 3.0 mph4.8 kmh 29.95 in1014.2 mb 0.00 in0.0 mm 0.00 in/hr0.0 mm/hr 0.00 in0.0 mm
10:40 AM 85.3°F29.6°C 77.3°F25.2°C 77% Calm Calm -- 29.96 in1014.6 mb 0.00 in0.0 mm 0.00 in/hr0.0 mm/hr 0.00 in0.0 mm
10:50 AM 84.4°F29.1°C 77.2°F25.1°C 79% 1.4 mph ESE2.3 kmh ESE 4.0 mph6.4 kmh 29.95 in1014.2 mb 0.00 in0.0 mm 0.00 in/hr0.0 mm/hr 0.00 in0.0 mm
11:00 AM 84.4°F29.1°C 77.2°F25.1°C 79% 1.3 mph ESE2.1 kmh ESE 4.0 mph6.4 kmh 29.95 in1014.2 mb 0.00 in0.0 mm 0.00 in/hr0.0 mm/hr 0.00 in0.0 mm
11:10 AM 83.9°F28.8°C 77.0°F25.0°C 80% 3.5 mph E5.6 kmh E 5.0 mph8.0 kmh 29.95 in1014.2 mb 0.00 in0.0 mm 0.00 in/hr0.0 mm/hr 0.00 in0.0 mm
11:20 AM 83.3°F28.5°C 77.6°F25.3°C 83% 3.1 mph ESE5.0 kmh ESE 6.0 mph9.7 kmh 29.95 in1014.2 mb 0.01 in0.3 mm 0.06 in/hr1.5 mm/hr 0.01 in0.3 mm
11:30 AM 82.4°F28.0°C 77.1°F25.1°C 84% 4.2 mph SE6.8 kmh SE 6.0 mph9.7 kmh 29.95 in1014.2 mb 0.01 in0.3 mm 0.06 in/hr1.5 mm/hr 0.02 in0.5 mm
11:40 AM 81.6°F27.6°C 77.0°F25.0°C 86% 1.5 mph SE2.4 kmh SE 2.0 mph3.2 kmh 29.95 in1014.2 mb 0.00 in0.0 mm 0.00 in/hr0.0 mm/hr 0.02 in0.5 mm
11:50 AM 83.2°F28.4°C 78.9°F26.1°C 87% 3.8 mph SE6.1 kmh SE 6.0 mph9.7 kmh 29.95 in1014.2 mb 0.00 in0.0 mm 0.00 in/hr0.0 mm/hr 0.02 in0.5 mm
12:00 PM 84.6°F29.2°C 78.8°F26.0°C 83% 3.8 mph E6.1 kmh E 6.0 mph9.7 kmh 29.94 in1013.9 mb 0.00 in0.0 mm 0.00 in/hr0.0 mm/hr 0.02 in0.5 mm
12:10 PM 85.9°F29.9°C 79.8°F26.6°C 82% 2.9 mph SE4.7 kmh SE 4.0 mph6.4 kmh 29.94 in1013.9 mb 0.00 in0.0 mm 0.00 in/hr0.0 mm/hr 0.02 in0.5 mm
12:20 PM 87.0°F30.6°C 79.3°F26.3°C 78% 2.8 mph SE4.5 kmh SE 6.0 mph9.7 kmh 29.93 in1013.5 mb 0.00 in0.0 mm 0.00 in/hr0.0 mm/hr 0.02 in0.5 mm
12:30 PM 87.4°F30.8°C 78.5°F25.8°C 75% 4.8 mph SE7.7 kmh SE 7.0 mph11.3 kmh 29.93 in1013.5 mb 0.00 in0.0 mm 0.00 in/hr0.0 mm/hr 0.02 in0.5 mm
12:40 PM 88.7°F31.5°C 80.1°F26.7°C 76% 4.9 mph SE7.9 kmh SE 10.0 mph16.1 kmh 29.94 in1013.9 mb 0.00 in0.0 mm 0.00 in/hr0.0 mm/hr 0.02 in0.5 mm
12:50 PM 87.3°F30.7°C 78.0°F25.6°C 74% 4.0 mph SE6.4 kmh SE 6.0 mph9.7 kmh 29.94 in1013.9 mb 0.00 in0.0 mm 0.00 in/hr0.0 mm/hr 0.02 in0.5 mm
01:00 PM 85.8°F29.9°C 77.8°F25.4°C 77% 3.9 mph SE6.3 kmh SE 6.0 mph9.7 kmh 29.93 in1013.5 mb 0.00 in0.0 mm 0.00 in/hr0.0 mm/hr 0.02 in0.5 mm
01:10 PM 84.4°F29.1°C 76.8°F24.9°C 78% 3.9 mph SW6.3 kmh SW 6.0 mph9.7 kmh 29.93 in1013.5 mb 0.00 in0.0 mm 0.00 in/hr0.0 mm/hr 0.02 in0.5 mm
01:20 PM 82.4°F28.0°C 76.3°F24.6°C 82% 2.1 mph S3.4 kmh S 4.0 mph6.4 kmh 29.93 in1013.5 mb 0.02 in0.5 mm 0.12 in/hr3.0 mm/hr 0.04 in1.0 mm
01:30 PM 80.6°F27.0°C 74.9°F23.8°C 83% 2.4 mph SW3.9 kmh SW 5.0 mph8.0 kmh 29.92 in1013.2 mb 0.02 in0.5 mm 0.12 in/hr3.0 mm/hr 0.06 in1.5 mm
01:40 PM 79.3°F26.3°C 74.4°F23.6°C 85% 1.8 mph SSW2.9 kmh SSW 3.0 mph4.8 kmh 29.92 in1013.2 mb 0.00 in0.0 mm 0.00 in/hr0.0 mm/hr 0.06 in1.5 mm
01:50 PM 78.8°F26.0°C 74.2°F23.4°C 86% 0.5 mph SSW0.8 kmh SSW 3.0 mph4.8 kmh 29.92 in1013.2 mb 0.01 in0.3 mm 0.06 in/hr1.5 mm/hr 0.07 in1.8 mm
02:00 PM 78.3°F25.7°C 74.1°F23.4°C 87% 2.7 mph S4.3 kmh S 4.0 mph6.4 kmh 29.92 in1013.2 mb 0.00 in0.0 mm 0.00 in/hr0.0 mm/hr 0.07 in1.8 mm
02:10 PM 77.9°F25.5°C 73.7°F23.2°C 87% 1.7 mph S2.7 kmh S 2.0 mph3.2 kmh 29.92 in1013.2 mb 0.00 in0.0 mm 0.00 in/hr0.0 mm/hr 0.07 in1.8 mm
02:20 PM 77.6°F25.3°C 73.8°F23.2°C 88% 0.2 mph S0.3 kmh S -- 29.92 in1013.2 mb 0.00 in0.0 mm 0.00 in/hr0.0 mm/hr 0.07 in1.8 mm
02:30 PM 77.1°F25.1°C 73.3°F22.9°C 88% 0.8 mph S1.3 kmh S 3.0 mph4.8 kmh 29.94 in1013.9 mb 0.00 in0.0 mm 0.00 in/hr0.0 mm/hr 0.07 in1.8 mm
02:40 PM 76.2°F24.6°C 72.4°F22.4°C 88% 0.5 mph S0.8 kmh S 2.0 mph3.2 kmh 29.94 in1013.9 mb 0.00 in0.0 mm 0.00 in/hr0.0 mm/hr 0.07 in1.8 mm
02:50 PM 74.9°F23.8°C 71.1°F21.7°C 88% 1.5 mph SSW2.4 kmh SSW 3.0 mph4.8 kmh 29.94 in1013.9 mb 0.02 in0.5 mm 0.12 in/hr3.0 mm/hr 0.10 in2.5 mm
03:00 PM 73.9°F23.3°C 70.5°F21.4°C 89% 4.6 mph SE7.4 kmh SE 8.0 mph12.9 kmh 29.93 in1013.5 mb 0.12 in3.0 mm 0.14 in/hr3.6 mm/hr 0.22 in5.6 mm
03:10 PM 73.7°F23.2°C 70.2°F21.2°C 89% 1.5 mph S2.4 kmh S 4.0 mph6.4 kmh 29.92 in1013.2 mb 0.31 in7.9 mm 1.86 in/hr47.2 mm/hr 0.49 in12.4 mm
03:20 PM 73.8°F23.2°C 70.7°F21.5°C 90% 1.1 mph S1.8 kmh S 2.0 mph3.2 kmh 29.92 in1013.2 mb 0.02 in0.5 mm 0.12 in/hr3.0 mm/hr 0.50 in12.7 mm
03:30 PM 74.0°F23.3°C 70.9°F21.6°C 90% 0.2 mph S0.3 kmh S 1.0 mph1.6 kmh 29.92 in1013.2 mb 0.01 in0.3 mm 0.06 in/hr1.5 mm/hr 0.51 in13.0 mm
03:40 PM 74.2°F23.4°C 71.4°F21.9°C 91% 1.9 mph S3.1 kmh S 3.0 mph4.8 kmh 29.93 in1013.5 mb 0.01 in0.3 mm 0.06 in/hr1.5 mm/hr 0.52 in13.2 mm
03:50 PM 74.1°F23.4°C 71.3°F21.8°C 91% 0.8 mph S1.3 kmh S 3.0 mph4.8 kmh 29.93 in1013.5 mb 0.01 in0.3 mm 0.06 in/hr1.5 mm/hr 0.53 in13.5 mm
04:00 PM 74.1°F23.4°C 71.3°F21.8°C 91% 0.8 mph S1.3 kmh S 2.0 mph3.2 kmh 29.92 in1013.2 mb 0.00 in0.0 mm 0.00 in/hr0.0 mm/hr 0.53 in13.5 mm
04:10 PM 74.1°F23.4°C 71.3°F21.8°C 91% 1.7 mph S2.7 kmh S 3.0 mph4.8 kmh 29.93 in1013.5 mb 0.00 in0.0 mm 0.00 in/hr0.0 mm/hr 0.53 in13.5 mm
04:20 PM 74.3°F23.5°C 71.5°F21.9°C 91% 2.6 mph NW4.2 kmh NW 5.0 mph8.0 kmh 29.92 in1013.2 mb 0.00 in0.0 mm 0.00 in/hr0.0 mm/hr 0.53 in13.5 mm
04:30 PM 74.4°F23.6°C 71.9°F22.2°C 92% 3.2 mph N5.1 kmh N 6.0 mph9.7 kmh 29.92 in1013.2 mb 0.00 in0.0 mm 0.00 in/hr0.0 mm/hr 0.53 in13.5 mm
04:40 PM 74.6°F23.7°C 72.1°F22.3°C 92% 2.9 mph N4.7 kmh N 5.0 mph8.0 kmh 29.91 in1012.9 mb 0.01 in0.3 mm 0.06 in/hr1.5 mm/hr 0.54 in13.7 mm
04:50 PM 74.9°F23.8°C 72.4°F22.4°C 92% 1.6 mph N2.6 kmh N 4.0 mph6.4 kmh 29.91 in1012.9 mb 0.00 in0.0 mm 0.00 in/hr0.0 mm/hr 0.54 in13.7 mm
05:00 PM 75.1°F23.9°C 72.6°F22.6°C 92% 1.7 mph N2.7 kmh N 4.0 mph6.4 kmh 29.91 in1012.9 mb 0.00 in0.0 mm 0.00 in/hr0.0 mm/hr 0.54 in13.7 mm
05:10 PM 74.9°F23.8°C 72.4°F22.4°C 92% 1.8 mph N2.9 kmh N 4.0 mph6.4 kmh 29.91 in1012.9 mb 0.00 in0.0 mm 0.00 in/hr0.0 mm/hr 0.54 in13.7 mm
05:20 PM 74.9°F23.8°C 72.4°F22.4°C 92% 1.1 mph N1.8 kmh N 2.0 mph3.2 kmh 29.91 in1012.9 mb 0.00 in0.0 mm 0.00 in/hr0.0 mm/hr 0.54 in13.7 mm
05:30 PM 74.7°F23.7°C 71.9°F22.2°C 91% 1.6 mph N2.6 kmh N 2.0 mph3.2 kmh 29.90 in1012.5 mb 0.00 in0.0 mm 0.00 in/hr0.0 mm/hr 0.54 in13.7 mm
05:40 PM 74.8°F23.8°C 72.0°F22.2°C 91% 1.8 mph N2.9 kmh N 5.0 mph8.0 kmh 29.90 in1012.5 mb 0.00 in0.0 mm 0.00 in/hr0.0 mm/hr 0.54 in13.7 mm
05:50 PM 74.7°F23.7°C 71.9°F22.2°C 91% 1.9 mph N3.1 kmh N 4.0 mph6.4 kmh 29.91 in1012.9 mb 0.00 in0.0 mm 0.00 in/hr0.0 mm/hr 0.54 in13.7 mm
06:00 PM 74.8°F23.8°C 72.0°F22.2°C 91% 0.8 mph N1.3 kmh N 1.0 mph1.6 kmh 29.91 in1012.9 mb 0.00 in0.0 mm 0.00 in/hr0.0 mm/hr 0.54 in13.7 mm
06:10 PM 74.9°F23.8°C 72.1°F22.3°C 91% 0.2 mph N0.3 kmh N 5.0 mph8.0 kmh 29.92 in1013.2 mb 0.00 in0.0 mm 0.00 in/hr0.0 mm/hr 0.54 in13.7 mm
06:20 PM 75.1°F23.9°C 72.3°F22.4°C 91% Calm Calm -- 29.92 in1013.2 mb 0.00 in0.0 mm 0.00 in/hr0.0 mm/hr 0.54 in13.7 mm
06:30 PM 75.2°F24.0°C 72.4°F22.4°C 91% 0.5 mph N0.8 kmh N 2.0 mph3.2 kmh 29.92 in1013.2 mb 0.00 in0.0 mm 0.00 in/hr0.0 mm/hr 0.54 in13.7 mm
06:40 PM 75.1°F23.9°C 72.3°F22.4°C 91% 0.1 mph N0.2 kmh N -- 29.92 in1013.2 mb 0.00 in0.0 mm 0.00 in/hr0.0 mm/hr 0.54 in13.7 mm
06:50 PM 75.2°F24.0°C 72.4°F22.4°C 91% 0.8 mph N1.3 kmh N 4.0 mph6.4 kmh 29.92 in1013.2 mb 0.01 in0.3 mm 0.06 in/hr1.5 mm/hr 0.55 in14.0 mm
07:00 PM 75.5°F24.2°C 72.7°F22.6°C 91% 1.2 mph N1.9 kmh N 2.0 mph3.2 kmh 29.92 in1013.2 mb 0.00 in0.0 mm 0.00 in/hr0.0 mm/hr 0.55 in14.0 mm
07:10 PM 75.6°F24.2°C 72.8°F22.7°C 91% 0.6 mph N1.0 kmh N 2.0 mph3.2 kmh 29.93 in1013.5 mb 0.00 in0.0 mm 0.00 in/hr0.0 mm/hr 0.55 in14.0 mm
07:20 PM 75.6°F24.2°C 72.8°F22.7°C 91% 0.1 mph N0.2 kmh N 1.0 mph1.6 kmh 29.93 in1013.5 mb 0.00 in0.0 mm 0.00 in/hr0.0 mm/hr 0.55 in14.0 mm
07:30 PM 75.7°F24.3°C 72.9°F22.7°C 91% 0.9 mph N1.4 kmh N 2.0 mph3.2 kmh 29.93 in1013.5 mb 0.00 in0.0 mm 0.00 in/hr0.0 mm/hr 0.55 in14.0 mm
07:40 PM 75.8°F24.3°C 73.0°F22.8°C 91% 1.7 mph ENE2.7 kmh ENE 5.0 mph8.0 kmh 29.93 in1013.5 mb 0.00 in0.0 mm 0.00 in/hr0.0 mm/hr 0.55 in14.0 mm
07:50 PM 75.7°F24.3°C 72.9°F22.7°C 91% 2.8 mph E4.5 kmh E 4.0 mph6.4 kmh 29.93 in1013.5 mb 0.00 in0.0 mm 0.00 in/hr0.0 mm/hr 0.55 in14.0 mm
08:00 PM 75.5°F24.2°C 72.7°F22.6°C 91% 2.2 mph E3.5 kmh E 3.0 mph4.8 kmh 29.93 in1013.5 mb 0.00 in0.0 mm 0.00 in/hr0.0 mm/hr 0.55 in14.0 mm
08:10 PM 75.4°F24.1°C 72.6°F22.6°C 91% 3.5 mph ESE5.6 kmh ESE 7.0 mph11.3 kmh 29.93 in1013.5 mb 0.00 in0.0 mm 0.00 in/hr0.0 mm/hr 0.55 in14.0 mm
08:20 PM 75.5°F24.2°C 72.7°F22.6°C 91% 2.8 mph ESE4.5 kmh ESE 4.0 mph6.4 kmh 29.93 in1013.5 mb 0.00 in0.0 mm 0.00 in/hr0.0 mm/hr 0.55 in14.0 mm
08:30 PM 75.6°F24.2°C 73.1°F22.8°C 92% 2.2 mph ESE3.5 kmh ESE 3.0 mph4.8 kmh 29.93 in1013.5 mb 0.00 in0.0 mm 0.00 in/hr0.0 mm/hr 0.55 in14.0 mm
08:40 PM 75.6°F24.2°C 73.1°F22.8°C 92% 1.4 mph ESE2.3 kmh ESE 3.0 mph4.8 kmh 29.93 in1013.5 mb 0.00 in0.0 mm 0.00 in/hr0.0 mm/hr 0.55 in14.0 mm
08:50 PM 75.6°F24.2°C 72.7°F22.6°C 91% 2.2 mph ESE3.5 kmh ESE 4.0 mph6.4 kmh 29.93 in1013.5 mb 0.00 in0.0 mm 0.00 in/hr0.0 mm/hr 0.55 in14.0 mm
09:00 PM 75.6°F24.2°C 73.1°F22.8°C 92% 2.3 mph ESE3.7 kmh ESE 3.0 mph4.8 kmh 29.93 in1013.5 mb 0.00 in0.0 mm 0.00 in/hr0.0 mm/hr 0.55 in14.0 mm
09:10 PM 75.7°F24.3°C 73.2°F22.9°C 92% 1.4 mph ESE2.3 kmh ESE 3.0 mph4.8 kmh 29.94 in1013.9 mb 0.00 in0.0 mm 0.00 in/hr0.0 mm/hr 0.55 in14.0 mm
09:20 PM 75.8°F24.3°C 73.3°F22.9°C 92% 1.4 mph ESE2.3 kmh ESE 3.0 mph4.8 kmh 29.93 in1013.5 mb 0.00 in0.0 mm 0.00 in/hr0.0 mm/hr 0.55 in14.0 mm
09:30 PM 75.7°F24.3°C 73.2°F22.9°C 92% 2.2 mph SE3.5 kmh SE 5.0 mph8.0 kmh 29.94 in1013.9 mb 0.00 in0.0 mm 0.00 in/hr0.0 mm/hr 0.55 in14.0 mm
09:40 PM 75.7°F24.3°C 73.2°F22.9°C 92% 1.7 mph SE2.7 kmh SE 2.0 mph3.2 kmh 29.94 in1013.9 mb 0.00 in0.0 mm 0.00 in/hr0.0 mm/hr 0.55 in14.0 mm
09:50 PM 75.6°F24.2°C 73.1°F22.8°C 92% 1.5 mph SE2.4 kmh SE 2.0 mph3.2 kmh 29.94 in1013.9 mb 0.00 in0.0 mm 0.00 in/hr0.0 mm/hr 0.55 in14.0 mm
10:00 PM 75.5°F24.2°C 72.6°F22.6°C 91% 1.1 mph SE1.8 kmh SE 2.0 mph3.2 kmh 29.95 in1014.2 mb 0.00 in0.0 mm 0.00 in/hr0.0 mm/hr 0.55 in14.0 mm
10:10 PM 75.4°F24.1°C 72.9°F22.7°C 92% 4.3 mph SE6.9 kmh SE 6.0 mph9.7 kmh 29.95 in1014.2 mb 0.00 in0.0 mm 0.00 in/hr0.0 mm/hr 0.55 in14.0 mm
10:20 PM 75.4°F24.1°C 72.6°F22.6°C 91% 3.1 mph SE5.0 kmh SE 4.0 mph6.4 kmh 29.95 in1014.2 mb 0.00 in0.0 mm 0.00 in/hr0.0 mm/hr 0.55 in14.0 mm
10:30 PM 75.3°F24.1°C 72.8°F22.7°C 92% 1.6 mph SE2.6 kmh SE 3.0 mph4.8 kmh 29.95 in1014.2 mb 0.00 in0.0 mm 0.00 in/hr0.0 mm/hr 0.55 in14.0 mm
10:40 PM 75.3°F24.1°C 72.8°F22.7°C 92% 1.5 mph SE2.4 kmh SE 2.0 mph3.2 kmh 29.95 in1014.2 mb 0.00 in0.0 mm 0.00 in/hr0.0 mm/hr 0.55 in14.0 mm
10:50 PM 75.3°F24.1°C 72.5°F22.5°C 91% 0.6 mph SE1.0 kmh SE 2.0 mph3.2 kmh 29.96 in1014.6 mb 0.00 in0.0 mm 0.00 in/hr0.0 mm/hr 0.55 in14.0 mm
11:00 PM 75.2°F24.0°C 72.4°F22.4°C 91% 0.7 mph SE1.1 kmh SE 2.0 mph3.2 kmh 29.95 in1014.2 mb 0.00 in0.0 mm 0.00 in/hr0.0 mm/hr 0.55 in14.0 mm
11:10 PM 75.2°F24.0°C 72.7°F22.6°C 92% 0.6 mph SE1.0 kmh SE 2.0 mph3.2 kmh 29.95 in1014.2 mb 0.00 in0.0 mm 0.00 in/hr0.0 mm/hr 0.55 in14.0 mm
11:20 PM 75.2°F24.0°C 72.7°F22.6°C 92% 0.8 mph SE1.3 kmh SE 3.0 mph4.8 kmh 29.95 in1014.2 mb 0.00 in0.0 mm 0.00 in/hr0.0 mm/hr 0.55 in14.0 mm
11:30 PM 75.4°F24.1°C 72.9°F22.7°C 92% 1.8 mph SE2.9 kmh SE 3.0 mph4.8 kmh 29.95 in1014.2 mb 0.00 in0.0 mm 0.00 in/hr0.0 mm/hr 0.55 in14.0 mm
11:40 PM 75.5°F24.2°C 73.0°F22.8°C 92% 3.2 mph SE5.1 kmh SE 4.0 mph6.4 kmh 29.96 in1014.6 mb 0.00 in0.0 mm 0.00 in/hr0.0 mm/hr 0.55 in14.0 mm
11:50 PM 75.5°F24.2°C 73.0°F22.8°C 92% 2.3 mph SE3.7 kmh SE 4.0 mph6.4 kmh 29.96 in1014.6 mb 0.00 in0.0 mm 0.00 in/hr0.0 mm/hr 0.55 in14.0 mm